createdAt,value
2023-04-01T00:01:01.322Z,3.90
2023-04-01T00:02:33.428Z,3.90
2023-04-01T00:04:05.873Z,4.80
2023-04-01T00:05:37.729Z,2.60
2023-04-01T00:07:10.172Z,4.60
2023-04-01T00:08:42.049Z,6.20
2023-04-01T00:10:16.468Z,4.00
2023-04-01T00:11:48.164Z,3.70
2023-04-01T00:13:20.803Z,1.80
2023-04-01T00:14:52.672Z,5.30
2023-04-01T00:16:24.602Z,4.80
2023-04-01T00:17:56.641Z,4.50
2023-04-01T00:19:29.117Z,1.80
2023-04-01T00:21:00.987Z,2.30
2023-04-01T00:22:32.783Z,4.50
2023-04-01T00:24:04.687Z,2.60
2023-04-01T00:25:36.493Z,4.10
2023-04-01T00:27:09.117Z,3.40
2023-04-01T00:28:41.536Z,2.30
2023-04-01T00:30:13.705Z,4.60
2023-04-01T00:31:45.866Z,3.00
2023-04-01T00:33:18.246Z,6.30
2023-04-01T00:34:54.053Z,3.20
2023-04-01T00:36:26.130Z,4.20
2023-04-01T00:37:58.214Z,3.90
2023-04-01T00:39:31.383Z,3.20
2023-04-01T00:41:03.268Z,2.90
2023-04-01T00:42:35.093Z,3.40
2023-04-01T00:44:28.287Z,3.10
2023-04-01T00:46:00.401Z,3.20
2023-04-01T00:47:32.288Z,5.80
2023-04-01T00:49:04.216Z,5.90
2023-04-01T00:50:38.101Z,5.80
2023-04-01T00:52:16.469Z,4.40
2023-04-01T00:53:53.550Z,1.20
2023-04-01T00:55:29.370Z,4.50
2023-04-01T00:57:15.370Z,2.20
2023-04-01T00:58:53.145Z,2.10
2023-04-01T01:00:24.924Z,2.90
2023-04-01T01:01:56.730Z,1.70
2023-04-01T01:06:23.104Z,2.70
2023-04-01T01:08:18.969Z,1.80
2023-04-01T01:09:59.761Z,2.70
2023-04-01T01:11:56.859Z,1.40
2023-04-01T01:14:14.861Z,2.60
2023-04-01T01:16:06.659Z,2.90
2023-04-01T01:17:59.493Z,1.80
2023-04-01T01:19:54.263Z,2.90
2023-04-01T01:21:46.433Z,1.30
2023-04-01T01:23:36.384Z,2.10
2023-04-01T01:25:26.700Z,2.70
2023-04-01T01:27:04.790Z,3.10
2023-04-01T01:29:25.582Z,3.30
2023-04-01T01:31:37.719Z,4.00
2023-04-01T01:33:59.962Z,2.10
2023-04-01T01:35:39.562Z,1.40
2023-04-01T01:37:18.557Z,2.00
2023-04-01T01:38:52.689Z,0.90
2023-04-01T01:40:28.568Z,0.80
2023-04-01T01:42:07.248Z,1.60
2023-04-01T01:43:47.476Z,3.80
2023-04-01T01:45:26.210Z,2.30
2023-04-01T01:46:59.749Z,1.50
2023-04-01T01:48:33.358Z,1.60
2023-04-01T01:50:07.257Z,1.30
2023-04-01T01:51:40.060Z,1.80
2023-04-01T01:53:14.930Z,3.00
2023-04-01T01:54:55.936Z,2.70
2023-04-01T01:56:31.726Z,1.00
2023-04-01T01:58:33.761Z,2.90
2023-04-01T02:00:15.415Z,1.30
2023-04-01T02:01:54.703Z,2.60
2023-04-01T02:03:32.050Z,1.80
2023-04-01T02:05:06.706Z,0.90
2023-04-01T02:06:47.440Z,2.80
2023-04-01T02:08:31.674Z,2.10
2023-04-01T02:10:04.972Z,1.20
2023-04-01T02:11:44.999Z,2.30
2023-04-01T02:13:28.473Z,2.40
2023-04-01T02:15:10.167Z,0.40
2023-04-01T02:16:58.128Z,2.50
2023-04-01T02:18:32.973Z,2.20
2023-04-01T02:20:22.960Z,1.20
2023-04-01T02:22:02.250Z,2.10
2023-04-01T02:23:39.191Z,3.00
2023-04-01T02:25:17.854Z,2.90
2023-04-01T02:26:52.443Z,2.10
2023-04-01T02:28:26.142Z,1.00
2023-04-01T02:29:59.002Z,1.90
2023-04-01T02:31:32.640Z,1.10
2023-04-01T02:33:06.494Z,1.90
2023-04-01T02:34:39.084Z,2.20
2023-04-01T02:36:16.416Z,0.90
2023-04-01T02:37:53.033Z,1.50
2023-04-01T02:39:26.558Z,3.20
2023-04-01T02:41:01.948Z,2.60
2023-04-01T02:42:34.422Z,2.70
2023-04-01T02:44:07.202Z,1.60
2023-04-01T02:45:39.122Z,2.90
2023-04-01T02:47:10.926Z,1.80
2023-04-01T02:48:42.754Z,2.20
2023-04-01T02:50:14.548Z,0.60
2023-04-01T02:51:46.265Z,1.60
2023-04-01T02:53:18.399Z,2.80
2023-04-01T02:54:50.180Z,0.80
2023-04-01T02:56:22.376Z,2.40
2023-04-01T02:57:54.259Z,1.10
2023-04-01T02:59:26.004Z,1.60
2023-04-01T03:00:57.886Z,1.10
2023-04-01T03:02:29.750Z,1.80
2023-04-01T03:04:01.586Z,3.30
2023-04-01T03:05:33.472Z,1.50
2023-04-01T03:07:05.785Z,3.10
2023-04-01T03:08:37.605Z,0.80
2023-04-01T03:10:10.394Z,1.30
2023-04-01T03:11:42.077Z,1.00
2023-04-01T03:13:13.786Z,2.50
2023-04-01T03:14:45.729Z,0.80
2023-04-01T03:16:17.539Z,1.90
2023-04-01T03:17:49.372Z,2.20
2023-04-01T03:19:21.399Z,1.00
2023-04-01T03:20:53.322Z,0.80
2023-04-01T03:22:25.299Z,2.50
2023-04-01T03:23:57.102Z,4.60
2023-04-01T03:25:29.728Z,2.50
2023-04-01T03:27:01.587Z,0.60
2023-04-01T03:28:33.301Z,1.30
2023-04-01T03:30:07.037Z,1.30
2023-04-01T03:31:39.852Z,1.40
2023-04-01T03:33:11.674Z,1.80
2023-04-01T03:34:43.522Z,2.00
2023-04-01T03:36:16.194Z,0.80
2023-04-01T03:37:48.124Z,1.20
2023-04-01T03:39:20.506Z,1.40
2023-04-01T03:40:52.724Z,1.90
2023-04-01T03:42:24.601Z,1.10
2023-04-01T03:43:56.385Z,1.10
2023-04-01T03:45:28.254Z,0.90
2023-04-01T03:47:01.485Z,1.40
2023-04-01T03:48:33.850Z,0.70
2023-04-01T03:50:08.008Z,0.50
2023-04-01T03:51:44.710Z,1.20
2023-04-01T03:53:16.729Z,1.50
2023-04-01T03:54:48.692Z,1.00
2023-04-01T03:56:20.692Z,0.80
2023-04-01T03:57:52.387Z,2.50
2023-04-01T03:59:24.303Z,0.70
2023-04-01T04:00:56.332Z,2.10
2023-04-01T04:02:28.078Z,1.30
2023-04-01T04:04:02.180Z,2.30
2023-04-01T04:05:34.172Z,1.60
2023-04-01T04:07:06.456Z,1.10
2023-04-01T04:08:51.133Z,1.50
2023-04-01T04:10:24.245Z,1.80
2023-04-01T04:11:56.198Z,1.90
2023-04-01T04:13:28.094Z,2.20
2023-04-01T04:15:05.878Z,2.80
2023-04-01T04:16:38.206Z,2.80
2023-04-01T04:18:10.277Z,2.90
2023-04-01T04:19:42.129Z,1.90
2023-04-01T04:21:16.000Z,1.50
2023-04-01T04:22:47.902Z,1.20
2023-04-01T04:24:19.675Z,1.30
2023-04-01T04:26:10.571Z,3.10
2023-04-01T04:27:42.719Z,2.00
2023-04-01T04:29:16.425Z,4.40
2023-04-01T04:30:48.556Z,0.80
2023-04-01T04:32:20.855Z,2.80
2023-04-01T04:33:54.071Z,1.80
2023-04-01T04:35:26.169Z,3.10
2023-04-01T04:36:57.923Z,1.60
2023-04-01T04:38:31.622Z,2.00
2023-04-01T04:40:03.791Z,2.10
2023-04-01T04:41:38.989Z,1.10
2023-04-01T04:43:13.921Z,1.50
2023-04-01T04:44:45.803Z,2.40
2023-04-01T04:46:18.185Z,2.80
2023-04-01T04:47:51.904Z,0.90
2023-04-01T04:49:24.185Z,1.70
2023-04-01T04:50:56.273Z,1.80
2023-04-01T04:52:28.780Z,1.70
2023-04-01T04:54:01.577Z,1.40
2023-04-01T04:55:49.559Z,1.80
2023-04-01T04:57:39.850Z,2.40
2023-04-01T04:59:11.771Z,2.10
2023-04-01T05:00:55.285Z,2.30
2023-04-01T05:02:34.501Z,0.90
2023-04-01T05:04:06.419Z,2.10
2023-04-01T05:05:38.939Z,0.80
2023-04-01T05:07:11.975Z,2.00
2023-04-01T05:08:45.901Z,2.80
2023-04-01T05:10:17.818Z,2.30
2023-04-01T05:11:49.776Z,1.50
2023-04-01T05:13:21.759Z,2.80
2023-04-01T05:14:53.621Z,2.00
2023-04-01T05:16:25.643Z,1.10
2023-04-01T05:17:57.554Z,1.70
2023-04-01T05:19:29.480Z,1.60
2023-04-01T05:21:01.969Z,2.30
2023-04-01T05:22:34.363Z,1.20
2023-04-01T05:24:10.638Z,1.40
2023-04-01T05:25:43.702Z,1.20
2023-04-01T05:27:16.269Z,1.70
2023-04-01T05:28:48.445Z,1.60
2023-04-01T05:30:20.679Z,2.40
2023-04-01T05:32:05.304Z,1.60
2023-04-01T05:33:38.084Z,2.20
2023-04-01T05:35:10.885Z,2.30
2023-04-01T05:36:44.030Z,1.30
2023-04-01T05:38:16.018Z,1.50
2023-04-01T05:39:47.845Z,1.20
2023-04-01T05:41:19.646Z,2.10
2023-04-01T05:42:51.701Z,2.50
2023-04-01T05:44:23.473Z,1.10
2023-04-01T05:46:15.606Z,1.50
2023-04-01T05:47:55.528Z,1.80
2023-04-01T05:49:28.929Z,3.00
2023-04-01T05:51:01.365Z,1.60
2023-04-01T05:52:33.802Z,1.70
2023-04-01T05:54:07.253Z,2.70
2023-04-01T05:55:39.132Z,2.20
2023-04-01T05:57:11.037Z,4.00
2023-04-01T05:58:42.860Z,2.60
2023-04-01T06:00:16.760Z,2.80
2023-04-01T06:01:48.579Z,1.70
2023-04-01T06:03:20.811Z,2.90
2023-04-01T06:05:24.701Z,1.80
2023-04-01T06:06:56.457Z,1.70
2023-04-01T06:08:32.432Z,4.10
2023-04-01T06:10:14.246Z,2.10
2023-04-01T06:12:26.364Z,2.50
2023-04-01T06:14:37.401Z,3.60
2023-04-01T06:16:40.924Z,2.60
2023-04-01T06:18:26.493Z,2.10
2023-04-01T06:20:23.319Z,4.50
2023-04-01T06:22:34.678Z,2.10
2023-04-01T06:24:20.224Z,3.20
2023-04-01T06:26:29.406Z,4.20
2023-04-01T06:28:30.824Z,1.80
2023-04-01T06:30:29.439Z,2.10
2023-04-01T06:32:18.774Z,2.10
2023-04-01T06:34:27.590Z,1.80
2023-04-01T06:36:43.594Z,2.50
2023-04-01T06:38:38.477Z,2.60
2023-04-01T06:40:45.441Z,2.00
2023-04-01T06:43:07.854Z,2.30
2023-04-01T06:45:17.865Z,2.70
2023-04-01T06:47:33.303Z,2.30
2023-04-01T06:49:53.375Z,1.20
2023-04-01T06:52:12.073Z,2.30
2023-04-01T06:54:18.415Z,2.30
2023-04-01T06:56:16.033Z,1.90
2023-04-01T06:58:17.708Z,2.60
2023-04-01T06:59:50.279Z,2.00
2023-04-01T07:01:30.788Z,1.90
2023-04-01T07:03:18.161Z,2.90
2023-04-01T07:04:56.887Z,2.30
2023-04-01T07:07:03.063Z,2.90
2023-04-01T07:08:42.590Z,4.90
2023-04-01T07:10:27.387Z,2.30
2023-04-01T07:12:50.976Z,2.10
2023-04-01T07:14:46.325Z,2.50
2023-04-01T07:16:48.888Z,2.70
2023-04-01T07:18:58.657Z,1.90
2023-04-01T07:20:37.934Z,2.40
2023-04-01T07:22:37.788Z,4.00
2023-04-01T07:24:42.645Z,2.70
2023-04-01T07:26:26.089Z,2.70
2023-04-01T07:28:06.221Z,2.40
2023-04-01T07:29:41.347Z,3.30
2023-04-01T07:32:00.986Z,2.40
2023-04-01T07:34:13.856Z,2.40
2023-04-01T07:36:24.142Z,1.70
2023-04-01T07:38:21.790Z,1.40
2023-04-01T07:40:22.574Z,3.20
2023-04-01T07:41:59.805Z,3.50
2023-04-01T07:44:13.037Z,2.50
2023-04-01T07:46:21.670Z,3.10
2023-04-01T07:48:22.049Z,3.00
2023-04-01T07:50:29.575Z,3.30
2023-04-01T07:52:36.899Z,3.60
2023-04-01T07:54:45.511Z,2.10
2023-04-01T07:56:43.438Z,2.70
2023-04-01T07:58:52.738Z,4.20
2023-04-01T08:01:22.764Z,3.30
2023-04-01T08:03:53.344Z,2.30
2023-04-01T08:05:31.908Z,3.10
2023-04-01T08:07:31.414Z,6.60
2023-04-01T08:09:52.539Z,4.40
2023-04-01T08:12:59.296Z,3.70
2023-04-01T08:15:23.087Z,4.60
2023-04-01T08:17:51.518Z,5.00
2023-04-01T08:20:06.431Z,3.70
2023-04-01T08:21:52.128Z,3.30
2023-04-01T08:23:32.818Z,4.40
2023-04-01T08:25:20.636Z,4.20
2023-04-01T08:27:00.369Z,3.90
2023-04-01T08:29:05.344Z,4.10
2023-04-01T08:31:04.954Z,4.00
2023-04-01T08:32:42.890Z,4.40
2023-04-01T08:34:39.926Z,5.20
2023-04-01T08:36:17.196Z,4.40
2023-04-01T08:37:54.691Z,3.50
2023-04-01T08:39:41.938Z,4.70
2023-04-01T08:41:58.721Z,4.10
2023-04-01T08:43:51.980Z,5.00
2023-04-01T08:45:29.732Z,5.00
2023-04-01T08:47:24.932Z,4.70
2023-04-01T08:49:44.353Z,5.00
2023-04-01T08:51:49.499Z,4.40
2023-04-01T08:53:47.744Z,5.30
2023-04-01T08:55:37.913Z,6.40
2023-04-01T08:57:58.656Z,5.80
2023-04-01T09:00:33.490Z,4.50
2023-04-01T09:03:19.549Z,4.00
2023-04-01T09:05:43.076Z,5.10
2023-04-01T09:07:51.907Z,4.40
2023-04-01T09:09:48.110Z,5.40
2023-04-01T09:12:09.116Z,4.40
2023-04-01T09:14:28.337Z,4.70
2023-04-01T09:16:41.533Z,6.80
2023-04-01T09:18:25.562Z,5.30
2023-04-01T09:20:31.097Z,6.20
2023-04-01T09:22:42.403Z,6.10
2023-04-01T09:24:53.143Z,6.50
2023-04-01T09:27:04.950Z,5.50
2023-04-01T09:28:56.013Z,6.40
2023-04-01T09:31:06.454Z,5.30
2023-04-01T09:32:44.889Z,6.10
2023-04-01T09:35:45.424Z,5.90
2023-04-01T09:37:33.177Z,5.40
2023-04-01T09:39:38.937Z,5.50
2023-04-01T09:41:54.827Z,7.10
2023-04-01T09:44:35.888Z,8.60
2023-04-01T09:46:55.096Z,11.00
2023-04-01T09:49:16.999Z,5.90
2023-04-01T09:51:28.970Z,6.70
2023-04-01T09:53:26.855Z,8.10
2023-04-01T09:55:36.163Z,7.90
2023-04-01T09:57:36.284Z,6.60
2023-04-01T10:00:06.091Z,7.00
2023-04-01T10:02:11.886Z,8.70
2023-04-01T10:04:33.496Z,8.80
2023-04-01T10:07:01.750Z,7.00
2023-04-01T10:08:56.966Z,6.70
2023-04-01T10:10:57.705Z,6.30
2023-04-01T10:13:02.873Z,8.00
2023-04-01T10:15:10.480Z,8.00
2023-04-01T10:17:19.206Z,8.30
2023-04-01T10:19:16.267Z,7.90
2023-04-01T10:21:43.604Z,7.90
2023-04-01T10:23:42.608Z,6.80
2023-04-01T10:25:54.710Z,7.70
2023-04-01T10:27:55.504Z,6.60
2023-04-01T10:30:22.085Z,7.20
2023-04-01T10:32:32.814Z,7.70
2023-04-01T10:34:35.505Z,7.50
2023-04-01T10:37:13.244Z,6.50
2023-04-01T10:38:57.746Z,7.00
2023-04-01T10:40:39.268Z,7.30
2023-04-01T10:43:09.288Z,6.30
2023-04-01T10:45:01.532Z,6.40
2023-04-01T10:47:02.554Z,5.50
2023-04-01T10:49:20.498Z,6.90
2023-04-01T10:51:28.593Z,6.20
2023-04-01T10:53:46.941Z,6.20
2023-04-01T10:56:14.860Z,6.10
2023-04-01T10:58:56.025Z,6.70
2023-04-01T11:01:24.623Z,7.80
2023-04-01T11:04:07.732Z,5.60
2023-04-01T11:06:26.310Z,5.90
2023-04-01T11:08:55.256Z,5.40
2023-04-01T11:11:19.665Z,5.80
2023-04-01T11:13:44.746Z,7.10
2023-04-01T11:15:31.850Z,7.60
2023-04-01T11:17:21.202Z,8.00
2023-04-01T11:19:40.865Z,5.70
2023-04-01T11:21:58.451Z,6.80
2023-04-01T11:24:31.770Z,7.70
2023-04-01T11:26:27.750Z,6.70
2023-04-01T11:28:41.198Z,5.80
2023-04-01T11:30:35.794Z,8.50
2023-04-01T11:32:57.743Z,8.60
2023-04-01T11:34:57.958Z,8.70
2023-04-01T11:36:53.927Z,9.80
2023-04-01T11:38:53.187Z,10.70
2023-04-01T11:41:37.989Z,10.80
2023-04-01T11:44:38.277Z,9.50
2023-04-01T11:46:30.626Z,10.60
2023-04-01T11:48:49.384Z,10.60
2023-04-01T11:50:46.726Z,11.80
2023-04-01T11:52:41.701Z,10.00
2023-04-01T11:54:30.958Z,11.60
2023-04-01T11:56:42.979Z,10.20
2023-04-01T11:58:32.871Z,8.30
2023-04-01T12:00:22.338Z,9.40
2023-04-01T12:02:37.882Z,10.80
2023-04-01T12:04:30.152Z,11.00
2023-04-01T12:06:14.475Z,9.10
2023-04-01T12:08:10.860Z,8.50
2023-04-01T12:09:48.173Z,8.60
2023-04-01T12:11:45.394Z,8.50
2023-04-01T12:13:36.281Z,8.70
2023-04-01T12:15:55.075Z,7.20
2023-04-01T12:18:02.218Z,8.50
2023-04-01T12:19:51.631Z,6.60
2023-04-01T12:21:53.953Z,6.40
2023-04-01T12:24:01.221Z,8.00
2023-04-01T12:26:04.021Z,8.80
2023-04-01T12:28:03.938Z,7.50
2023-04-01T12:29:49.842Z,9.40
2023-04-01T12:32:00.916Z,9.00
2023-04-01T12:33:57.463Z,8.60
2023-04-01T12:36:20.701Z,10.70
2023-04-01T12:49:22.133Z,9.90
2023-04-01T12:51:22.751Z,11.00
2023-04-01T12:53:23.804Z,10.50
2023-04-01T12:55:05.646Z,10.20
2023-04-01T12:57:06.944Z,10.00
2023-04-01T12:59:01.438Z,9.70
2023-04-01T13:00:55.137Z,8.70
2023-04-01T13:02:56.381Z,7.90
2023-04-01T13:04:50.226Z,7.80
2023-04-01T13:07:00.365Z,7.30
2023-04-01T13:08:52.290Z,7.50
2023-04-01T13:11:01.213Z,6.80
2023-04-01T13:12:58.561Z,7.50
2023-04-01T13:15:17.343Z,7.40
2023-04-01T13:17:49.350Z,5.50
2023-04-01T13:19:36.161Z,5.60
2023-04-01T13:21:32.335Z,6.30
2023-04-01T13:23:28.446Z,6.70
2023-04-01T13:25:40.037Z,6.30
2023-04-01T13:27:31.411Z,5.40
2023-04-01T13:29:27.230Z,6.50
2023-04-01T13:31:40.457Z,6.40
2023-04-01T13:33:22.307Z,7.40
2023-04-01T13:35:17.105Z,6.60
2023-04-01T13:36:52.579Z,6.70
2023-04-01T13:38:48.856Z,6.30
2023-04-01T13:41:06.371Z,10.00
2023-04-01T13:42:54.916Z,7.80
2023-04-01T13:44:42.752Z,7.30
2023-04-01T13:46:39.615Z,7.40
2023-04-01T13:48:37.081Z,7.00
2023-04-01T13:50:34.953Z,5.60
2023-04-01T13:53:04.172Z,5.80
2023-04-01T13:54:59.673Z,4.80
2023-04-01T13:57:01.768Z,6.00
2023-04-01T13:58:36.319Z,4.80
2023-04-01T14:00:47.120Z,5.20
2023-04-01T14:02:50.023Z,5.00
2023-04-01T14:04:40.994Z,5.10
2023-04-01T14:06:41.224Z,6.10
2023-04-01T14:08:28.128Z,7.10
2023-04-01T14:10:08.597Z,8.80
2023-04-01T14:12:09.590Z,7.40
2023-04-01T14:14:18.663Z,9.80
2023-04-01T14:16:14.073Z,8.80
2023-04-01T14:18:08.381Z,9.60
2023-04-01T14:20:07.499Z,9.40
2023-04-01T14:22:26.678Z,12.00
2023-04-01T14:24:23.778Z,12.10
2023-04-01T14:26:27.287Z,10.40
2023-04-01T14:28:56.210Z,11.40
2023-04-01T14:31:17.548Z,10.80
2023-04-01T14:33:42.923Z,12.30
2023-04-01T14:35:48.525Z,9.80
2023-04-01T14:38:12.980Z,9.20
2023-04-01T14:40:04.035Z,10.30
2023-04-01T14:42:26.054Z,9.00
2023-04-01T14:44:14.751Z,10.90
2023-04-01T14:46:11.259Z,8.30
2023-04-01T14:48:17.720Z,8.10
2023-04-01T14:49:57.382Z,10.10
2023-04-01T14:51:29.364Z,7.80
2023-04-01T14:53:30.510Z,7.70
2023-04-01T14:55:22.040Z,7.80
2023-04-01T14:57:32.020Z,8.40
2023-04-01T14:59:27.102Z,8.70
2023-04-01T15:01:07.973Z,7.80
2023-04-01T15:02:52.311Z,8.80
2023-04-01T15:04:51.407Z,9.00
2023-04-01T15:06:40.107Z,9.60
2023-04-01T15:08:33.326Z,9.40
2023-04-01T15:10:47.426Z,10.80
2023-04-01T15:12:56.679Z,13.00
2023-04-01T15:15:21.904Z,9.90
2023-04-01T15:17:44.844Z,10.30
2023-04-01T15:19:45.946Z,9.50
2023-04-01T15:22:06.161Z,9.30
2023-04-01T15:23:54.222Z,9.00
2023-04-01T15:25:55.204Z,10.30
2023-04-01T15:27:53.502Z,10.10
2023-04-01T15:29:46.962Z,10.00
2023-04-01T15:31:33.827Z,9.70
2023-04-01T15:33:23.797Z,9.80
2023-04-01T15:35:25.426Z,10.80
2023-04-01T15:37:23.973Z,9.90
2023-04-01T15:39:51.877Z,12.90
2023-04-01T15:41:37.394Z,11.60
2023-04-01T15:43:42.133Z,10.10
2023-04-01T15:45:27.138Z,9.90
2023-04-01T15:47:29.415Z,10.60
2023-04-01T15:49:16.952Z,9.40
2023-04-01T15:51:10.535Z,10.00
2023-04-01T15:53:38.491Z,12.00
2023-04-01T15:55:28.687Z,11.60
2023-04-01T15:57:54.165Z,10.30
2023-04-01T16:00:28.601Z,13.50
2023-04-01T16:02:21.128Z,12.20
2023-04-01T16:04:23.375Z,12.80
2023-04-01T16:06:37.631Z,15.00
2023-04-01T16:08:50.745Z,11.70
2023-04-01T16:10:39.261Z,12.00
2023-04-01T16:12:30.292Z,13.00
2023-04-01T16:14:54.324Z,13.30
2023-04-01T16:16:47.370Z,11.30
2023-04-01T16:19:11.435Z,12.00
2023-04-01T16:21:28.137Z,13.00
2023-04-01T16:23:14.910Z,13.80
2023-04-01T16:25:02.344Z,13.80
2023-04-01T16:26:44.111Z,12.10
2023-04-01T16:28:32.238Z,13.60
2023-04-01T16:30:36.632Z,11.50
2023-04-01T16:32:24.650Z,11.50
2023-04-01T16:34:04.306Z,14.40
2023-04-01T16:36:00.251Z,10.30
2023-04-01T16:38:06.874Z,10.20
2023-04-01T16:40:02.257Z,8.70
2023-04-01T16:41:50.230Z,8.50
2023-04-01T16:43:31.922Z,8.50
2023-04-01T16:45:09.823Z,8.40
2023-04-01T16:47:15.977Z,7.50
2023-04-01T16:49:35.768Z,10.40
2023-04-01T16:51:56.104Z,9.50
2023-04-01T16:53:53.553Z,8.70
2023-04-01T16:55:42.133Z,11.00
2023-04-01T16:57:45.383Z,10.20
2023-04-01T17:00:16.035Z,8.10
2023-04-01T17:02:03.565Z,8.90
2023-04-01T17:03:46.283Z,9.40
2023-04-01T17:05:18.443Z,8.80
2023-04-01T17:07:20.744Z,9.70
2023-04-01T17:09:21.480Z,9.70
2023-04-01T17:11:05.450Z,8.80
2023-04-01T17:13:38.506Z,10.30
2023-04-01T17:15:51.910Z,9.40
2023-04-01T17:17:49.280Z,8.70
2023-04-01T17:20:06.817Z,10.80
2023-04-01T17:21:44.639Z,12.10
2023-04-01T17:23:39.158Z,10.80
2023-04-01T17:25:35.038Z,8.70
2023-04-01T17:27:22.443Z,10.80
2023-04-01T17:29:28.030Z,9.50
2023-04-01T17:31:22.112Z,9.50
2023-04-01T17:33:12.142Z,11.50
2023-04-01T17:35:54.188Z,11.90
2023-04-01T17:37:47.084Z,10.10
2023-04-01T17:39:50.416Z,11.90
2023-04-01T17:41:26.622Z,11.20
2023-04-01T17:43:07.351Z,11.30
2023-04-01T17:44:52.487Z,10.50
2023-04-01T17:46:31.751Z,11.40
2023-04-01T17:48:22.003Z,9.80
2023-04-01T17:50:03.470Z,10.50
2023-04-01T17:51:52.762Z,9.00
2023-04-01T17:53:59.841Z,11.20
2023-04-01T17:55:53.204Z,9.20
2023-04-01T17:58:08.546Z,10.40
2023-04-01T18:00:00.185Z,12.50
2023-04-01T18:01:43.671Z,11.00
2023-04-01T18:03:59.808Z,11.30
2023-04-01T18:06:11.850Z,12.10
2023-04-01T18:08:21.550Z,12.60
2023-04-01T18:10:23.753Z,14.70
2023-04-01T18:12:01.502Z,13.00
2023-04-01T18:14:06.449Z,12.30
2023-04-01T18:16:19.920Z,13.70
2023-04-01T18:18:21.062Z,12.30
2023-04-01T18:20:50.380Z,14.90
2023-04-01T18:22:29.717Z,14.30
2023-04-01T18:24:41.706Z,15.80
2023-04-01T18:26:43.281Z,18.10
2023-04-01T18:28:32.763Z,16.40
2023-04-01T18:30:16.876Z,16.10
2023-04-01T18:32:36.371Z,15.30
2023-04-01T18:34:32.224Z,17.00
2023-04-01T18:36:17.207Z,16.90
2023-04-01T18:38:48.911Z,20.80
2023-04-01T18:40:32.210Z,17.80
2023-04-01T18:42:42.415Z,16.40
2023-04-01T18:44:51.646Z,16.70
2023-04-01T18:46:53.747Z,15.30
2023-04-01T18:48:46.816Z,15.70
2023-04-01T18:51:00.783Z,15.00
2023-04-01T18:52:40.718Z,11.70
2023-04-01T18:54:33.255Z,11.60
2023-04-01T18:56:12.805Z,10.00
2023-04-01T18:57:59.486Z,8.90
2023-04-01T19:00:03.401Z,7.90
2023-04-01T19:02:05.304Z,8.30
2023-04-01T19:03:54.667Z,8.00
2023-04-01T19:05:53.774Z,8.30
2023-04-01T19:07:58.289Z,7.50
2023-04-01T19:09:49.234Z,8.30
2023-04-01T19:12:02.560Z,7.30
2023-04-01T19:14:12.026Z,5.70
2023-04-01T19:16:16.568Z,6.70
2023-04-01T19:18:09.668Z,5.60
2023-04-01T19:20:25.495Z,4.50
2023-04-01T19:22:34.172Z,5.10
2023-04-01T19:24:38.472Z,5.00
2023-04-01T19:26:44.338Z,4.90
2023-04-01T19:28:37.368Z,4.90
2023-04-01T19:30:37.265Z,4.70
2023-04-01T19:32:41.742Z,5.30
2023-04-01T19:34:50.705Z,5.30
2023-04-01T19:37:01.085Z,5.40
2023-04-01T19:39:09.842Z,6.70
2023-04-01T19:41:23.669Z,5.20
2023-04-01T19:43:26.978Z,5.80
2023-04-01T19:45:29.794Z,5.90
2023-04-01T19:47:24.895Z,6.00
2023-04-01T19:49:42.249Z,6.10
2023-04-01T19:51:55.538Z,5.60
2023-04-01T19:53:52.495Z,5.70
2023-04-01T19:55:45.844Z,5.30
2023-04-01T19:57:56.358Z,5.00
2023-04-01T19:59:52.138Z,5.80
2023-04-01T20:01:52.052Z,5.90
2023-04-01T20:03:47.108Z,5.70
2023-04-01T20:05:50.726Z,5.30
2023-04-01T20:07:42.242Z,5.80
2023-04-01T20:09:58.124Z,6.30
2023-04-01T20:11:43.505Z,5.90
2023-04-01T20:13:36.438Z,6.30
2023-04-01T20:15:40.729Z,6.10
2023-04-01T20:17:24.972Z,6.20
2023-04-01T20:19:03.793Z,6.10
2023-04-01T20:20:36.503Z,5.30
2023-04-01T20:22:38.771Z,6.40
2023-04-01T20:24:38.978Z,5.90
2023-04-01T20:26:23.276Z,5.20
2023-04-01T20:28:15.793Z,5.40
2023-04-01T20:30:28.077Z,5.60
2023-04-01T20:32:56.517Z,6.20
2023-04-01T20:34:55.153Z,6.90
2023-04-01T20:37:16.327Z,6.50
2023-04-01T20:39:48.743Z,6.20
2023-04-01T20:41:50.463Z,6.40
2023-04-01T20:44:04.785Z,6.60
2023-04-01T20:46:32.510Z,7.10
2023-04-01T20:48:45.558Z,7.10
2023-04-01T20:50:40.762Z,7.00
2023-04-01T20:52:26.915Z,6.60
2023-04-01T20:54:19.838Z,6.40
2023-04-01T20:56:32.397Z,6.40
2023-04-01T20:58:31.607Z,5.40
2023-04-01T21:00:34.155Z,5.20
2023-04-01T21:02:14.587Z,6.00
2023-04-01T21:04:13.617Z,6.30
2023-04-01T21:06:18.457Z,6.50
2023-04-01T21:08:02.752Z,6.60
2023-04-01T21:10:01.947Z,5.50
2023-04-01T21:11:47.223Z,6.90
2023-04-01T21:13:28.192Z,6.10
2023-04-01T21:15:47.889Z,6.40
2023-04-01T21:17:41.572Z,7.30
2023-04-01T21:19:56.291Z,7.00
2023-04-01T21:21:55.651Z,6.20
2023-04-01T21:23:46.836Z,6.40
2023-04-01T21:25:52.898Z,6.60
2023-04-01T21:28:14.544Z,6.80
2023-04-01T21:30:02.801Z,6.10
2023-04-01T21:32:21.882Z,6.70
2023-04-01T21:34:31.275Z,6.10
2023-04-01T21:36:42.258Z,6.70
2023-04-01T21:38:51.107Z,7.90
2023-04-01T21:40:49.381Z,7.00
2023-04-01T21:43:21.433Z,7.20
2023-04-01T21:45:50.050Z,6.50
2023-04-01T21:47:40.755Z,6.90
2023-04-01T21:49:37.147Z,8.00
2023-04-01T21:51:20.702Z,7.80
2023-04-01T21:53:34.481Z,7.70
2023-04-01T21:55:43.315Z,7.40
2023-04-01T21:58:09.711Z,7.60
2023-04-01T21:59:41.502Z,7.50
2023-04-01T22:01:53.721Z,7.90
2023-04-01T22:03:59.825Z,7.50
2023-04-01T22:05:53.281Z,8.20
2023-04-01T22:07:38.224Z,7.50
2023-04-01T22:09:18.498Z,8.20
2023-04-01T22:11:35.489Z,10.40
2023-04-01T22:13:55.504Z,8.50
2023-04-01T22:15:46.325Z,7.10
2023-04-01T22:17:34.091Z,8.20
2023-04-01T22:19:23.434Z,8.10
2023-04-01T22:21:06.208Z,8.30
2023-04-01T22:23:05.921Z,8.30
2023-04-01T22:24:56.954Z,8.40
2023-04-01T22:27:14.339Z,9.10
2023-04-01T22:29:21.495Z,8.90
2023-04-01T22:31:02.661Z,9.60
2023-04-01T22:32:58.101Z,9.40
2023-04-01T22:35:08.899Z,10.20
2023-04-01T22:37:29.693Z,9.90
2023-04-01T22:39:20.282Z,9.40
2023-04-01T22:41:27.592Z,9.20
2023-04-01T22:43:14.156Z,12.90
2023-04-01T22:45:18.182Z,9.10
2023-04-01T22:47:41.959Z,8.80
2023-04-01T22:50:04.695Z,10.60
2023-04-01T22:51:52.652Z,10.20
2023-04-01T22:53:31.248Z,10.70
2023-04-01T22:55:17.597Z,10.10
2023-04-01T22:58:02.715Z,10.70
2023-04-01T22:59:56.884Z,11.20
2023-04-01T23:01:40.787Z,10.50
2023-04-01T23:03:38.999Z,10.60
2023-04-01T23:05:18.529Z,12.50
2023-04-01T23:06:59.143Z,11.10
2023-04-01T23:08:59.383Z,10.50
2023-04-01T23:11:05.852Z,11.20
2023-04-01T23:12:37.906Z,12.20
2023-04-01T23:14:21.948Z,12.00
2023-04-01T23:15:56.200Z,12.50
2023-04-01T23:17:34.136Z,10.60
2023-04-01T23:19:28.896Z,10.40
2023-04-01T23:21:22.507Z,9.90
2023-04-01T23:23:18.243Z,9.90
2023-04-01T23:25:29.117Z,10.10
2023-04-01T23:27:18.490Z,11.00
2023-04-01T23:28:55.739Z,10.20
2023-04-01T23:30:50.461Z,10.30
2023-04-01T23:32:27.778Z,9.30
2023-04-01T23:34:13.051Z,10.60
2023-04-01T23:36:07.899Z,9.60
2023-04-01T23:37:40.106Z,9.50
2023-04-01T23:39:40.519Z,10.10
2023-04-01T23:41:40.377Z,10.50
2023-04-01T23:43:53.138Z,10.90
2023-04-01T23:45:25.682Z,9.20
2023-04-01T23:47:01.110Z,9.50
2023-04-01T23:48:42.558Z,10.30
2023-04-01T23:50:19.761Z,10.10
2023-04-01T23:51:59.125Z,9.70
2023-04-01T23:53:35.641Z,9.30
2023-04-01T23:55:19.028Z,10.50
2023-04-01T23:56:57.758Z,9.00
2023-04-01T23:58:57.729Z,8.30
